sensor_id;sensor_type;location;lat;lon;timestamp;pressure;altitude;pressure_sealevel;temperature;humidity
29215;BME280;16252;49.816;7.964;2024-01-30T00:01:15;101407.13;;;4.48;58.27
29215;BME280;16252;49.816;7.964;2024-01-30T00:03:41;101402.75;;;4.47;58.43
29215;BME280;16252;49.816;7.964;2024-01-30T00:06:06;101407.28;;;4.43;58.31
29215;BME280;16252;49.816;7.964;2024-01-30T00:08:31;101406.38;;;4.43;58.44
29215;BME280;16252;49.816;7.964;2024-01-30T00:10:57;101409.97;;;4.42;58.35
29215;BME280;16252;49.816;7.964;2024-01-30T00:13:22;101410.06;;;4.39;58.33
29215;BME280;16252;49.816;7.964;2024-01-30T00:15:47;101408.38;;;4.36;58.45
29215;BME280;16252;49.816;7.964;2024-01-30T00:18:13;101410.16;;;4.36;58.34
29215;BME280;16252;49.816;7.964;2024-01-30T00:20:38;101406.66;;;4.33;58.40
29215;BME280;16252;49.816;7.964;2024-01-30T00:23:03;101405.81;;;4.33;58.34
29215;BME280;16252;49.816;7.964;2024-01-30T00:25:29;101401.41;;;4.32;58.48
29215;BME280;16252;49.816;7.964;2024-01-30T00:27:54;101404.91;;;4.32;58.47
29215;BME280;16252;49.816;7.964;2024-01-30T00:30:20;101396.97;;;4.32;58.46
29215;BME280;16252;49.816;7.964;2024-01-30T00:32:45;101407.66;;;4.29;58.41
29215;BME280;16252;49.816;7.964;2024-01-30T00:35:10;101408.56;;;4.28;58.58
29215;BME280;16252;49.816;7.964;2024-01-30T00:37:36;101408.56;;;4.28;58.63
29215;BME280;16252;49.816;7.964;2024-01-30T00:40:01;101405.03;;;4.28;58.43
29215;BME280;16252;49.816;7.964;2024-01-30T00:42:26;101400.69;;;4.25;58.48
29215;BME280;16252;49.816;7.964;2024-01-30T00:44:52;101407.78;;;4.25;58.57
29215;BME280;16252;49.816;7.964;2024-01-30T00:47:17;101405.13;;;4.25;58.58
29215;BME280;16252;49.816;7.964;2024-01-30T00:49:42;101407.78;;;4.25;58.36
29215;BME280;16252;49.816;7.964;2024-01-30T00:52:07;101404.25;;;4.24;58.39
29215;BME280;16252;49.816;7.964;2024-01-30T00:54:32;101407.78;;;4.25;58.37
29215;BME280;16252;49.816;7.964;2024-01-30T00:56:58;101406.94;;;4.23;58.35
29215;BME280;16252;49.816;7.964;2024-01-30T00:59:23;101405.22;;;4.22;58.40
29215;BME280;16252;49.816;7.964;2024-01-30T01:01:48;101403.53;;;4.19;58.45
29215;BME280;16252;49.816;7.964;2024-01-30T01:04:13;101400.03;;;4.17;58.56
29215;BME280;16252;49.816;7.964;2024-01-30T01:06:38;101403.63;;;4.16;58.31
29215;BME280;16252;49.816;7.964;2024-01-30T01:09:04;101410.69;;;4.16;58.50
29215;BME280;16252;49.816;7.964;2024-01-30T01:11:29;101400.13;;;4.14;58.48
29215;BME280;16252;49.816;7.964;2024-01-30T01:13:54;101403.69;;;4.13;58.49
29215;BME280;16252;49.816;7.964;2024-01-30T01:16:19;101405.47;;;4.12;58.57
29215;BME280;16252;49.816;7.964;2024-01-30T01:18:44;101404.59;;;4.12;58.54
29215;BME280;16252;49.816;7.964;2024-01-30T01:21:10;101405.47;;;4.12;58.42
29215;BME280;16252;49.816;7.964;2024-01-30T01:23:35;101402.81;;;4.12;58.47
29215;BME280;16252;49.816;7.964;2024-01-30T01:26:00;101397.50;;;4.12;58.34
29215;BME280;16252;49.816;7.964;2024-01-30T01:28:26;101402.00;;;4.10;58.44
29215;BME280;16252;49.816;7.964;2024-01-30T01:30:52;101395.81;;;4.10;58.43
29215;BME280;16252;49.816;7.964;2024-01-30T01:33:17;101397.59;;;4.09;58.40
29215;BME280;16252;49.816;7.964;2024-01-30T01:35:42;101392.38;;;4.08;58.39
29215;BME280;16252;49.816;7.964;2024-01-30T01:38:07;101401.19;;;4.07;58.51
29215;BME280;16252;49.816;7.964;2024-01-30T01:40:32;101408.31;;;4.05;58.47
29215;BME280;16252;49.816;7.964;2024-01-30T01:42:58;101409.25;;;4.02;58.39
29215;BME280;16252;49.816;7.964;2024-01-30T01:45:23;101404.91;;;4.00;58.58
29215;BME280;16252;49.816;7.964;2024-01-30T01:47:51;101397.03;;;3.98;58.40
29215;BME280;16252;49.816;7.964;2024-01-30T01:50:17;101330.22;;;3.54;58.49
29215;BME280;16252;49.816;7.964;2024-01-30T01:52:49;101405.06;;;3.95;58.41
29215;BME280;16252;49.816;7.964;2024-01-30T01:55:15;101398.00;;;3.94;58.55
29215;BME280;16252;49.816;7.964;2024-01-30T01:57:41;101403.41;;;3.91;58.39
29215;BME280;16252;49.816;7.964;2024-01-30T02:00:06;101401.69;;;3.88;58.43
29215;BME280;16252;49.816;7.964;2024-01-30T02:02:34;101400.00;;;3.86;58.52
29215;BME280;16252;49.816;7.964;2024-01-30T02:05:00;101397.47;;;3.81;58.59
29215;BME280;16252;49.816;7.964;2024-01-30T02:07:25;101403.72;;;3.79;58.63
29215;BME280;16252;49.816;7.964;2024-01-30T02:09:51;101404.56;;;3.79;58.56
29215;BME280;16252;49.816;7.964;2024-01-30T02:12:16;101394.91;;;3.78;58.54
29215;BME280;16252;49.816;7.964;2024-01-30T02:14:45;101395.75;;;3.80;58.59
29215;BME280;16252;49.816;7.964;2024-01-30T02:17:11;101404.56;;;3.81;58.56
29215;BME280;16252;49.816;7.964;2024-01-30T02:19:36;101394.78;;;3.83;58.36
29215;BME280;16252;49.816;7.964;2024-01-30T02:22:01;101387.75;;;3.82;58.32
29215;BME280;16252;49.816;7.964;2024-01-30T02:24:27;101390.44;;;3.80;58.47
29215;BME280;16252;49.816;7.964;2024-01-30T02:26:52;101387.81;;;3.79;58.56
29215;BME280;16252;49.816;7.964;2024-01-30T02:29:17;101389.63;;;3.78;58.46
29215;BME280;16252;49.816;7.964;2024-01-30T02:31:42;101391.44;;;3.76;58.47
29215;BME280;16252;49.816;7.964;2024-01-30T02:34:08;101384.34;;;3.77;58.49
29215;BME280;16252;49.816;7.964;2024-01-30T02:36:33;101390.50;;;3.77;58.49
29215;BME280;16252;49.816;7.964;2024-01-30T02:38:58;101382.63;;;3.76;58.50
29215;BME280;16252;49.816;7.964;2024-01-30T02:41:23;101382.63;;;3.76;58.68
29215;BME280;16252;49.816;7.964;2024-01-30T02:43:48;101394.09;;;3.75;58.63
29215;BME280;16252;49.816;7.964;2024-01-30T02:46:13;101384.41;;;3.75;58.56
29215;BME280;16252;49.816;7.964;2024-01-30T02:48:39;101386.16;;;3.75;58.59
29215;BME280;16252;49.816;7.964;2024-01-30T02:51:04;101384.41;;;3.75;58.61
29215;BME280;16252;49.816;7.964;2024-01-30T02:53:29;101380.88;;;3.75;58.44
29215;BME280;16252;49.816;7.964;2024-01-30T02:55:54;101380.00;;;3.74;58.43
29215;BME280;16252;49.816;7.964;2024-01-30T02:58:19;101383.50;;;3.75;58.42
29215;BME280;16252;49.816;7.964;2024-01-30T03:00:45;101381.78;;;3.74;58.43
29215;BME280;16252;49.816;7.964;2024-01-30T03:03:10;101380.09;;;3.71;58.54
29215;BME280;16252;49.816;7.964;2024-01-30T03:05:35;101388.06;;;3.69;58.49
29215;BME280;16252;49.816;7.964;2024-01-30T03:08:01;101391.66;;;3.67;58.43
29215;BME280;16252;49.816;7.964;2024-01-30T03:10:26;101381.97;;;3.66;58.47
29215;BME280;16252;49.816;7.964;2024-01-30T03:12:51;101386.41;;;3.65;58.41
29215;BME280;16252;49.816;7.964;2024-01-30T03:15:16;101387.28;;;3.66;58.42
29215;BME280;16252;49.816;7.964;2024-01-30T03:17:42;101378.50;;;3.64;58.34
29215;BME280;16252;49.816;7.964;2024-01-30T03:20:07;101384.66;;;3.64;58.26
29215;BME280;16252;49.816;7.964;2024-01-30T03:22:32;101392.59;;;3.64;58.30
29215;BME280;16252;49.816;7.964;2024-01-30T03:24:57;101382.06;;;3.63;58.39
29215;BME280;16252;49.816;7.964;2024-01-30T03:27:23;101389.16;;;3.62;58.26
29215;BME280;16252;49.816;7.964;2024-01-30T03:29:48;101377.75;;;3.59;58.34
29215;BME280;16252;49.816;7.964;2024-01-30T03:32:13;101380.47;;;3.56;58.14
29215;BME280;16252;49.816;7.964;2024-01-30T03:34:38;101372.56;;;3.54;58.32
29215;BME280;16252;49.816;7.964;2024-01-30T03:37:04;101372.66;;;3.51;58.37
29215;BME280;16252;49.816;7.964;2024-01-30T03:39:30;101370.94;;;3.50;58.55
29215;BME280;16252;49.816;7.964;2024-01-30T03:41:55;101369.13;;;3.51;58.53
29215;BME280;16252;49.816;7.964;2024-01-30T03:44:21;101378.81;;;3.52;58.47
29215;BME280;16252;49.816;7.964;2024-01-30T03:46:46;101364.72;;;3.51;58.38
29215;BME280;16252;49.816;7.964;2024-01-30T03:49:11;101365.56;;;3.52;58.40
29215;BME280;16252;49.816;7.964;2024-01-30T03:51:36;101363.84;;;3.51;58.35
29215;BME280;16252;49.816;7.964;2024-01-30T03:54:02;101362.13;;;3.50;58.53
29215;BME280;16252;49.816;7.964;2024-01-30T03:56:27;101370.06;;;3.50;58.40
29215;BME280;16252;49.816;7.964;2024-01-30T03:58:52;101369.16;;;3.49;58.49
29215;BME280;16252;49.816;7.964;2024-01-30T04:01:17;101364.78;;;3.50;58.54
29215;BME280;16252;49.816;7.964;2024-01-30T04:03:42;101368.31;;;3.48;58.46
29215;BME280;16252;49.816;7.964;2024-01-30T04:06:09;101372.72;;;3.48;58.42
29215;BME280;16252;49.816;7.964;2024-01-30T04:08:34;101366.56;;;3.47;58.35
29215;BME280;16252;49.816;7.964;2024-01-30T04:11:02;101367.47;;;3.46;58.53
29215;BME280;16252;49.816;7.964;2024-01-30T04:13:28;101377.16;;;3.47;58.45
29215;BME280;16252;49.816;7.964;2024-01-30T04:15:53;101365.72;;;3.47;58.43
29215;BME280;16252;49.816;7.964;2024-01-30T04:18:20;101369.25;;;3.46;58.39
29215;BME280;16252;49.816;7.964;2024-01-30T04:20:45;101367.53;;;3.45;58.47
29215;BME280;16252;49.816;7.964;2024-01-30T04:23:10;101370.16;;;3.45;58.35
29215;BME280;16252;49.816;7.964;2024-01-30T04:25:35;101369.31;;;3.44;58.44
29215;BME280;16252;49.816;7.964;2024-01-30T04:28:01;101370.19;;;3.43;58.34
29215;BME280;16252;49.816;7.964;2024-01-30T04:30:26;101370.25;;;3.42;58.50
29215;BME280;16252;49.816;7.964;2024-01-30T04:32:51;101374.66;;;3.41;58.34
29215;BME280;16252;49.816;7.964;2024-01-30T04:35:19;101377.28;;;3.41;58.48
29215;BME280;16252;49.816;7.964;2024-01-30T04:37:45;101379.13;;;3.39;58.45
29215;BME280;16252;49.816;7.964;2024-01-30T04:40:10;101379.16;;;3.38;58.44
29215;BME280;16252;49.816;7.964;2024-01-30T04:42:36;101376.53;;;3.36;58.46
29215;BME280;16252;49.816;7.964;2024-01-30T04:45:01;101373.03;;;3.36;58.44
29215;BME280;16252;49.816;7.964;2024-01-30T04:47:27;101373.94;;;3.35;58.54
29215;BME280;16252;49.816;7.964;2024-01-30T04:49:52;101375.69;;;3.36;58.48
29215;BME280;16252;49.816;7.964;2024-01-30T04:52:17;101381.03;;;3.34;58.49
29215;BME280;16252;49.816;7.964;2024-01-30T04:54:43;101375.72;;;3.34;58.50
29215;BME280;16252;49.816;7.964;2024-01-30T04:57:08;101378.41;;;3.33;58.51
29215;BME280;16252;49.816;7.964;2024-01-30T04:59:34;101376.63;;;3.33;58.43
29215;BME280;16252;49.816;7.964;2024-01-30T05:01:59;101377.53;;;3.32;58.32
29215;BME280;16252;49.816;7.964;2024-01-30T05:04:24;101381.94;;;3.32;58.32
29215;BME280;16252;49.816;7.964;2024-01-30T05:06:50;101388.16;;;3.31;58.34
29215;BME280;16252;49.816;7.964;2024-01-30T05:09:15;101382.88;;;3.29;58.32
29215;BME280;16252;49.816;7.964;2024-01-30T05:11:40;101385.59;;;3.28;58.33
29215;BME280;16252;49.816;7.964;2024-01-30T05:14:06;101384.72;;;3.27;58.42
29215;BME280;16252;49.816;7.964;2024-01-30T05:16:31;101379.47;;;3.25;58.48
29215;BME280;16252;49.816;7.964;2024-01-30T05:18:57;101387.38;;;3.25;58.43
29215;BME280;16252;49.816;7.964;2024-01-30T05:21:22;101388.25;;;3.26;58.50
29215;BME280;16252;49.816;7.964;2024-01-30T05:23:47;101385.69;;;3.23;58.36
29215;BME280;16252;49.816;7.964;2024-01-30T05:26:12;101382.19;;;3.21;58.43
29215;BME280;16252;49.816;7.964;2024-01-30T05:28:38;101391.91;;;3.22;58.38
29215;BME280;16252;49.816;7.964;2024-01-30T05:31:03;101383.06;;;3.21;58.49
29215;BME280;16252;49.816;7.964;2024-01-30T05:33:28;101381.34;;;3.20;58.40
29215;BME280;16252;49.816;7.964;2024-01-30T05:35:53;101379.63;;;3.19;58.33
29215;BME280;16252;49.816;7.964;2024-01-30T05:38:19;101378.72;;;3.19;58.38
29215;BME280;16252;49.816;7.964;2024-01-30T05:40:44;101382.25;;;3.19;58.26
29215;BME280;16252;49.816;7.964;2024-01-30T05:43:10;101384.00;;;3.19;58.44
29215;BME280;16252;49.816;7.964;2024-01-30T05:45:35;101373.44;;;3.19;58.35
29215;BME280;16252;49.816;7.964;2024-01-30T05:48:01;101371.69;;;3.18;58.43
29215;BME280;16252;49.816;7.964;2024-01-30T05:50:26;101373.47;;;3.17;58.44
29215;BME280;16252;49.816;7.964;2024-01-30T05:52:52;101374.44;;;3.15;58.43
29215;BME280;16252;49.816;7.964;2024-01-30T05:55:17;101377.09;;;3.13;58.35
29215;BME280;16252;49.816;7.964;2024-01-30T05:57:42;101379.78;;;3.12;58.35
29215;BME280;16252;49.816;7.964;2024-01-30T06:00:07;101373.66;;;3.10;58.31
29215;BME280;16252;49.816;7.964;2024-01-30T06:02:33;101377.19;;;3.09;58.43
29215;BME280;16252;49.816;7.964;2024-01-30T06:04:59;101372.81;;;3.08;58.40
29215;BME280;16252;49.816;7.964;2024-01-30T06:07:24;101382.53;;;3.07;58.45
29215;BME280;16252;49.816;7.964;2024-01-30T06:09:49;101380.78;;;3.06;58.38
29215;BME280;16252;49.816;7.964;2024-01-30T06:12:14;101385.22;;;3.06;58.39
29215;BME280;16252;49.816;7.964;2024-01-30T06:14:39;101379.09;;;3.03;58.44
29215;BME280;16252;49.816;7.964;2024-01-30T06:17:07;101382.66;;;3.02;58.44
29215;BME280;16252;49.816;7.964;2024-01-30T06:19:32;101384.38;;;3.03;58.52
29215;BME280;16252;49.816;7.964;2024-01-30T06:21:57;101386.16;;;3.03;58.45
29215;BME280;16252;49.816;7.964;2024-01-30T06:24:22;101394.94;;;3.03;58.46
29215;BME280;16252;49.816;7.964;2024-01-30T06:26:47;101386.16;;;3.03;58.43
29215;BME280;16252;49.816;7.964;2024-01-30T06:29:13;101382.63;;;3.04;58.38
29215;BME280;16252;49.816;7.964;2024-01-30T06:31:42;101391.41;;;3.04;58.37
29215;BME280;16252;49.816;7.964;2024-01-30T06:34:08;101386.16;;;3.03;58.39
29215;BME280;16252;49.816;7.964;2024-01-30T06:36:33;101388.88;;;3.00;58.27
29215;BME280;16252;49.816;7.964;2024-01-30T06:38:59;101393.31;;;2.98;58.26
29215;BME280;16252;49.816;7.964;2024-01-30T06:41:24;101398.66;;;2.96;58.35
29215;BME280;16252;49.816;7.964;2024-01-30T06:43:49;101395.19;;;2.94;58.25
29215;BME280;16252;49.816;7.964;2024-01-30T06:46:15;101399.63;;;2.92;58.18
29215;BME280;16252;49.816;7.964;2024-01-30T06:48:40;101393.50;;;2.90;58.37
29215;BME280;16252;49.816;7.964;2024-01-30T06:51:05;101389.13;;;2.89;58.32
29215;BME280;16252;49.816;7.964;2024-01-30T06:53:30;101399.72;;;2.88;58.30
29215;BME280;16252;49.816;7.964;2024-01-30T06:55:56;101391.84;;;2.86;58.40
29215;BME280;16252;49.816;7.964;2024-01-30T06:58:21;101404.16;;;2.87;58.44
29215;BME280;16252;49.816;7.964;2024-01-30T07:00:46;101399.72;;;2.88;58.47
29215;BME280;16252;49.816;7.964;2024-01-30T07:03:11;101401.47;;;2.89;58.46
29215;BME280;16252;49.816;7.964;2024-01-30T07:05:36;101402.34;;;2.89;58.48
29215;BME280;16252;49.816;7.964;2024-01-30T07:08:02;101404.97;;;2.89;58.49
29215;BME280;16252;49.816;7.964;2024-01-30T07:10:27;101408.50;;;2.90;58.48
29215;BME280;16252;49.816;7.964;2024-01-30T07:12:52;101411.13;;;2.90;58.42
29215;BME280;16252;49.816;7.964;2024-01-30T07:15:17;101411.13;;;2.90;58.43
29215;BME280;16252;49.816;7.964;2024-01-30T07:17:45;101411.13;;;2.91;58.39
29215;BME280;16252;49.816;7.964;2024-01-30T07:20:11;101406.69;;;2.92;58.44
29215;BME280;16252;49.816;7.964;2024-01-30T07:22:36;101410.19;;;2.92;58.48
29215;BME280;16252;49.816;7.964;2024-01-30T07:25:01;101408.41;;;2.93;58.43
29215;BME280;16252;49.816;7.964;2024-01-30T07:27:26;101418.97;;;2.94;58.42
29215;BME280;16252;49.816;7.964;2024-01-30T07:29:52;101410.13;;;2.95;58.54
29215;BME280;16252;49.816;7.964;2024-01-30T07:32:17;101410.13;;;2.95;58.49
29215;BME280;16252;49.816;7.964;2024-01-30T07:34:43;101411.00;;;2.96;58.47
29215;BME280;16252;49.816;7.964;2024-01-30T07:37:08;101417.97;;;2.98;58.51
29215;BME280;16252;49.816;7.964;2024-01-30T07:39:34;101417.97;;;3.00;58.55
29215;BME280;16252;49.816;7.964;2024-01-30T07:42:00;101415.28;;;3.01;58.60
29215;BME280;16252;49.816;7.964;2024-01-30T07:44:25;101420.53;;;3.03;58.62
29215;BME280;16252;49.816;7.964;2024-01-30T07:46:50;101417.81;;;3.06;58.63
29215;BME280;16252;49.816;7.964;2024-01-30T07:49:16;101413.34;;;3.10;58.72
29215;BME280;16252;49.816;7.964;2024-01-30T07:51:41;101419.41;;;3.13;58.81
29215;BME280;16252;49.816;7.964;2024-01-30T07:54:06;101417.59;;;3.17;59.04
29215;BME280;16252;49.816;7.964;2024-01-30T07:56:31;101421.00;;;3.22;58.92
29215;BME280;16252;49.816;7.964;2024-01-30T07:58:56;101418.19;;;3.28;59.05
29215;BME280;16252;49.816;7.964;2024-01-30T08:01:22;101418.06;;;3.34;59.09
29215;BME280;16252;49.816;7.964;2024-01-30T08:03:47;101427.63;;;3.40;59.09
29215;BME280;16252;49.816;7.964;2024-01-30T08:06:12;101423.03;;;3.46;59.25
29215;BME280;16252;49.816;7.964;2024-01-30T08:08:37;101427.28;;;3.54;59.21
29215;BME280;16252;49.816;7.964;2024-01-30T08:11:03;101428.91;;;3.59;59.35
29215;BME280;16252;49.816;7.964;2024-01-30T08:13:28;101426.97;;;3.66;59.31
29215;BME280;16252;49.816;7.964;2024-01-30T08:15:53;101425.09;;;3.71;59.07
29215;BME280;16252;49.816;7.964;2024-01-30T08:18:18;101429.41;;;3.75;59.26
29215;BME280;16252;49.816;7.964;2024-01-30T08:20:43;101428.47;;;3.78;59.21
29215;BME280;16252;49.816;7.964;2024-01-30T08:23:09;101426.59;;;3.81;59.11
29215;BME280;16252;49.816;7.964;2024-01-30T08:25:35;101434.44;;;3.84;59.19
29215;BME280;16252;49.816;7.964;2024-01-30T08:28:01;101428.22;;;3.87;59.29
29215;BME280;16252;49.816;7.964;2024-01-30T08:30:26;101436.97;;;3.90;59.25
29215;BME280;16252;49.816;7.964;2024-01-30T08:32:52;101426.28;;;3.94;59.29
29215;BME280;16252;49.816;7.964;2024-01-30T08:35:17;101434.97;;;3.99;59.22
29215;BME280;16252;49.816;7.964;2024-01-30T08:37:42;101430.47;;;4.02;59.19
29215;BME280;16252;49.816;7.964;2024-01-30T08:40:08;101432.16;;;4.05;59.21
29215;BME280;16252;49.816;7.964;2024-01-30T08:42:35;101432.03;;;4.09;59.45
29215;BME280;16252;49.816;7.964;2024-01-30T08:45:01;101429.28;;;4.14;59.45
29215;BME280;16252;49.816;7.964;2024-01-30T08:47:26;101430.00;;;4.19;59.31
29215;BME280;16252;49.816;7.964;2024-01-30T08:49:51;101433.44;;;4.23;59.50
29215;BME280;16252;49.816;7.964;2024-01-30T08:52:17;101425.38;;;4.27;59.41
29215;BME280;16252;49.816;7.964;2024-01-30T08:54:42;101427.91;;;4.32;59.39
29215;BME280;16252;49.816;7.964;2024-01-30T08:57:07;101429.56;;;4.36;59.50
29215;BME280;16252;49.816;7.964;2024-01-30T08:59:32;101427.69;;;4.40;59.44
29215;BME280;16252;49.816;7.964;2024-01-30T09:01:58;101434.66;;;4.44;59.38
29215;BME280;16252;49.816;7.964;2024-01-30T09:04:24;101438.91;;;4.49;59.46
29215;BME280;16252;49.816;7.964;2024-01-30T09:06:49;101432.63;;;4.53;59.63
29215;BME280;16252;49.816;7.964;2024-01-30T09:09:15;101434.22;;;4.59;59.60
29215;BME280;16252;49.816;7.964;2024-01-30T09:11:40;101434.09;;;4.64;59.64
29215;BME280;16252;49.816;7.964;2024-01-30T09:14:05;101433.06;;;4.68;59.57
29215;BME280;16252;49.816;7.964;2024-01-30T09:16:30;101431.13;;;4.74;59.51
29215;BME280;16252;49.816;7.964;2024-01-30T09:18:55;101433.63;;;4.79;59.63
29215;BME280;16252;49.816;7.964;2024-01-30T09:21:21;101435.22;;;4.85;59.61
29215;BME280;16252;49.816;7.964;2024-01-30T09:23:46;101444.78;;;4.90;59.80
29215;BME280;16252;49.816;7.964;2024-01-30T09:26:11;101455.22;;;4.96;59.58
29215;BME280;16252;49.816;7.964;2024-01-30T09:28:37;101449.75;;;5.01;59.66
29215;BME280;16252;49.816;7.964;2024-01-30T09:31:03;101448.75;;;5.05;59.82
29215;BME280;16252;49.816;7.964;2024-01-30T09:33:28;101458.31;;;5.11;59.76
29215;BME280;16252;49.816;7.964;2024-01-30T09:35:53;101451.09;;;5.16;59.75
29215;BME280;16252;49.816;7.964;2024-01-30T09:38:18;101458.91;;;5.20;59.78
29215;BME280;16252;49.816;7.964;2024-01-30T09:40:44;101457.84;;;5.26;59.76
29215;BME280;16252;49.816;7.964;2024-01-30T09:43:10;101458.53;;;5.33;59.91
29215;BME280;16252;49.816;7.964;2024-01-30T09:45:42;101455.75;;;5.37;59.88
29215;BME280;16252;49.816;7.964;2024-01-30T09:48:07;101453.84;;;5.41;59.89
29215;BME280;16252;49.816;7.964;2024-01-30T09:50:32;101447.53;;;5.45;59.86
29215;BME280;16252;49.816;7.964;2024-01-30T09:52:58;101442.97;;;5.49;59.91
29215;BME280;16252;49.816;7.964;2024-01-30T09:55:24;101446.34;;;5.54;59.96
29215;BME280;16252;49.816;7.964;2024-01-30T09:57:49;101452.44;;;5.57;60.10
29215;BME280;16252;49.816;7.964;2024-01-30T10:00:14;101450.50;;;5.62;59.95
29215;BME280;16252;49.816;7.964;2024-01-30T10:02:40;101449.47;;;5.67;59.99
29215;BME280;16252;49.816;7.964;2024-01-30T10:05:05;101454.63;;;5.71;60.09
29215;BME280;16252;49.816;7.964;2024-01-30T10:07:31;101456.28;;;5.75;59.99
29215;BME280;16252;49.816;7.964;2024-01-30T10:09:56;101451.69;;;5.80;60.00
29215;BME280;16252;49.816;7.964;2024-01-30T10:12:25;101439.06;;;5.87;60.07
29215;BME280;16252;49.816;7.964;2024-01-30T10:14:51;101442.41;;;5.92;60.16
29215;BME280;16252;49.816;7.964;2024-01-30T10:17:16;101449.31;;;5.99;60.16
29215;BME280;16252;49.816;7.964;2024-01-30T10:19:41;101449.09;;;6.05;60.19
29215;BME280;16252;49.816;7.964;2024-01-30T10:22:06;101463.84;;;6.14;60.29
29215;BME280;16252;49.816;7.964;2024-01-30T10:24:35;101452.91;;;6.23;60.39
29215;BME280;16252;49.816;7.964;2024-01-30T10:27:00;101457.09;;;6.31;60.30
29215;BME280;16252;49.816;7.964;2024-01-30T10:29:26;101460.38;;;6.37;60.38
29215;BME280;16252;49.816;7.964;2024-01-30T10:32:01;101448.66;;;6.43;60.34
29215;BME280;16252;49.816;7.964;2024-01-30T10:34:27;101449.31;;;6.49;60.23
29215;BME280;16252;49.816;7.964;2024-01-30T10:36:56;101445.56;;;6.55;60.29
29215;BME280;16252;49.816;7.964;2024-01-30T10:39:24;101449.72;;;6.62;60.17
29215;BME280;16252;49.816;7.964;2024-01-30T10:41:49;101452.09;;;6.70;60.20
29215;BME280;16252;49.816;7.964;2024-01-30T10:44:19;101453.63;;;6.77;60.17
29215;BME280;16252;49.816;7.964;2024-01-30T10:46:45;101452.50;;;6.83;60.28
29215;BME280;16252;49.816;7.964;2024-01-30T10:49:15;101443.44;;;6.88;60.20
29215;BME280;16252;49.816;7.964;2024-01-30T10:51:41;101442.34;;;6.94;60.25
29215;BME280;16252;49.816;7.964;2024-01-30T10:54:07;101429.78;;;6.98;60.15
29215;BME280;16252;49.816;7.964;2024-01-30T10:56:32;101439.31;;;7.03;60.07
29215;BME280;16252;49.816;7.964;2024-01-30T10:58:58;101438.31;;;7.06;60.07
29215;BME280;16252;49.816;7.964;2024-01-30T11:01:24;101429.44;;;7.07;59.82
29215;BME280;16252;49.816;7.964;2024-01-30T11:03:53;101434.69;;;7.08;59.93
29215;BME280;16252;49.816;7.964;2024-01-30T11:06:19;101425.72;;;7.11;59.93
29215;BME280;16252;49.816;7.964;2024-01-30T11:08:59;101428.38;;;7.11;59.82
29215;BME280;16252;49.816;7.964;2024-01-30T11:11:24;101415.00;;;7.12;59.84
29215;BME280;16252;49.816;7.964;2024-01-30T11:13:49;101411.50;;;7.12;59.88
29215;BME280;16252;49.816;7.964;2024-01-30T11:16:15;101410.56;;;7.13;59.80
29215;BME280;16252;49.816;7.964;2024-01-30T11:18:40;101418.53;;;7.13;59.81
29215;BME280;16252;49.816;7.964;2024-01-30T11:21:05;101419.41;;;7.13;59.91
29215;BME280;16252;49.816;7.964;2024-01-30T11:23:30;101410.50;;;7.14;59.85
29215;BME280;16252;49.816;7.964;2024-01-30T11:25:56;101405.06;;;7.18;59.98
29215;BME280;16252;49.816;7.964;2024-01-30T11:28:21;101409.38;;;7.20;59.99
29215;BME280;16252;49.816;7.964;2024-01-30T11:30:47;101410.13;;;7.24;60.08
29215;BME280;16252;49.816;7.964;2024-01-30T11:33:15;101415.25;;;7.28;60.01
29215;BME280;16252;49.816;7.964;2024-01-30T11:35:51;101413.38;;;7.32;60.03
29215;BME280;16252;49.816;7.964;2024-01-30T11:38:16;101416.72;;;7.37;60.14
29215;BME280;16252;49.816;7.964;2024-01-30T11:40:42;101410.38;;;7.40;60.15
29215;BME280;16252;49.816;7.964;2024-01-30T11:43:08;101415.50;;;7.44;60.07
29215;BME280;16252;49.816;7.964;2024-01-30T11:45:34;101408.28;;;7.48;60.08
29215;BME280;16252;49.816;7.964;2024-01-30T11:48:00;101414.34;;;7.51;60.04
29215;BME280;16252;49.816;7.964;2024-01-30T11:50:28;101405.22;;;7.57;60.22
29215;BME280;16252;49.816;7.964;2024-01-30T11:52:54;101398.84;;;7.61;60.20
29215;BME280;16252;49.816;7.964;2024-01-30T11:55:19;101396.00;;;7.66;60.32
29215;BME280;16252;49.816;7.964;2024-01-30T11:57:44;101400.19;;;7.71;60.23
29215;BME280;16252;49.816;7.964;2024-01-30T12:00:16;101397.34;;;7.76;60.19
29215;BME280;16252;49.816;7.964;2024-01-30T12:02:43;101396.34;;;7.78;60.11
29215;BME280;16252;49.816;7.964;2024-01-30T12:05:08;101393.47;;;7.83;60.25
29215;BME280;16252;49.816;7.964;2024-01-30T12:07:36;101388.88;;;7.87;60.23
29215;BME280;16252;49.816;7.964;2024-01-30T12:10:02;101385.16;;;7.91;60.29
29215;BME280;16252;49.816;7.964;2024-01-30T12:12:28;101381.41;;;7.95;60.35
29215;BME280;16252;49.816;7.964;2024-01-30T12:14:53;101377.63;;;8.00;60.42
29215;BME280;16252;49.816;7.964;2024-01-30T12:17:23;101378.28;;;8.06;60.45
29215;BME280;16252;49.816;7.964;2024-01-30T12:19:48;101373.53;;;8.12;60.50
29215;BME280;16252;49.816;7.964;2024-01-30T12:22:13;101375.94;;;8.18;60.48
29215;BME280;16252;49.816;7.964;2024-01-30T12:24:39;101376.66;;;8.22;60.42
29215;BME280;16252;49.816;7.964;2024-01-30T12:27:04;101373.81;;;8.27;60.31
29215;BME280;16252;49.816;7.964;2024-01-30T12:29:31;101367.47;;;8.29;60.37
29215;BME280;16252;49.816;7.964;2024-01-30T12:31:57;101364.66;;;8.32;60.37
29215;BME280;16252;49.816;7.964;2024-01-30T12:34:22;101366.31;;;8.35;60.40
29215;BME280;16252;49.816;7.964;2024-01-30T12:36:49;101369.66;;;8.40;60.35
29215;BME280;16252;49.816;7.964;2024-01-30T12:39:15;101354.41;;;8.43;60.39
29215;BME280;16252;49.816;7.964;2024-01-30T12:41:41;101373.78;;;8.47;60.43
29215;BME280;16252;49.816;7.964;2024-01-30T12:44:06;101367.41;;;8.51;60.29
29215;BME280;16252;49.816;7.964;2024-01-30T12:46:31;101369.06;;;8.54;60.35
29215;BME280;16252;49.816;7.964;2024-01-30T12:48:58;101362.63;;;8.58;60.35
29215;BME280;16252;49.816;7.964;2024-01-30T12:51:24;101359.84;;;8.61;60.34